createdAt,value
2023-01-17T00:00:17.028Z,8.550
2023-01-17T00:01:16.241Z,8.307
2023-01-17T00:02:16.636Z,8.387
2023-01-17T00:03:16.800Z,8.430
2023-01-17T00:04:16.729Z,8.449
2023-01-17T00:05:16.677Z,8.350
2023-01-17T00:06:16.719Z,8.335
2023-01-17T00:07:16.760Z,8.279
2023-01-17T00:08:17.187Z,8.206
2023-01-17T00:09:16.269Z,8.270
2023-01-17T00:10:17.075Z,8.239
2023-01-17T00:11:16.287Z,8.289
2023-01-17T00:12:16.256Z,8.366
2023-01-17T00:13:16.764Z,8.189
2023-01-17T00:14:16.444Z,8.090
2023-01-17T00:15:16.293Z,8.243
2023-01-17T00:16:16.125Z,8.338
2023-01-17T00:17:16.453Z,8.234
2023-01-17T00:18:16.559Z,8.244
2023-01-17T00:19:16.446Z,8.229
2023-01-17T00:20:19.325Z,8.265
2023-01-17T00:21:16.667Z,8.338
2023-01-17T00:22:16.616Z,8.387
2023-01-17T00:23:16.605Z,8.390
2023-01-17T00:24:16.444Z,8.373
2023-01-17T00:25:16.576Z,8.409
2023-01-17T00:26:16.496Z,8.479
2023-01-17T00:27:16.457Z,8.569
2023-01-17T00:28:16.507Z,8.564
2023-01-17T00:29:16.475Z,8.595
2023-01-17T00:30:16.474Z,8.595
2023-01-17T00:31:16.646Z,8.555
2023-01-17T00:32:16.425Z,8.574
2023-01-17T00:33:16.361Z,8.560
2023-01-17T00:34:16.169Z,8.539
2023-01-17T00:35:16.555Z,8.590
2023-01-17T00:36:16.610Z,8.585
2023-01-17T00:37:16.890Z,8.524
2023-01-17T00:38:16.617Z,8.579
2023-01-17T00:39:16.580Z,8.564
2023-01-17T00:40:16.720Z,8.609
2023-01-17T00:41:16.821Z,8.585
2023-01-17T00:42:16.675Z,8.637
2023-01-17T00:43:16.403Z,8.600
2023-01-17T00:44:16.301Z,8.595
2023-01-17T00:45:16.540Z,8.625
2023-01-17T00:47:21.375Z,8.609
2023-01-17T00:48:16.127Z,8.595
2023-01-17T00:49:21.663Z,8.555
2023-01-17T00:50:16.403Z,8.620
2023-01-17T00:51:16.466Z,8.560
2023-01-17T00:52:16.586Z,8.460
2023-01-17T00:53:16.306Z,8.387
2023-01-17T00:54:18.840Z,8.388
2023-01-17T00:55:16.561Z,8.395
2023-01-17T00:56:16.265Z,8.295
2023-01-17T00:57:16.431Z,8.265
2023-01-17T00:58:15.035Z,8.295
2023-01-17T00:59:16.487Z,8.333
2023-01-17T01:00:17.363Z,8.329
2023-01-17T01:01:18.631Z,8.253
2023-01-17T01:02:16.715Z,8.304
2023-01-17T01:03:16.526Z,8.288
2023-01-17T01:04:16.574Z,8.282
2023-01-17T01:05:16.708Z,8.222
2023-01-17T01:06:16.604Z,8.220
2023-01-17T01:07:16.487Z,8.239
2023-01-17T01:08:16.352Z,8.177
2023-01-17T01:09:16.320Z,8.215
2023-01-17T01:10:16.718Z,8.255
2023-01-17T01:11:16.570Z,8.279
2023-01-17T01:12:16.494Z,8.274
2023-01-17T01:13:16.612Z,8.284
2023-01-17T01:14:16.497Z,8.326
2023-01-17T01:15:16.692Z,8.328
2023-01-17T01:16:16.550Z,8.340
2023-01-17T01:17:16.283Z,8.404
2023-01-17T01:18:16.175Z,8.383
2023-01-17T01:19:16.380Z,8.310
2023-01-17T01:20:16.374Z,8.289
2023-01-17T01:21:16.317Z,8.300
2023-01-17T01:22:16.450Z,8.295
2023-01-17T01:23:16.276Z,8.255
2023-01-17T01:24:16.252Z,8.225
2023-01-17T01:25:16.860Z,8.060
2023-01-17T01:26:16.725Z,8.095
2023-01-17T01:27:16.426Z,8.055
2023-01-17T01:28:16.190Z,8.069
2023-01-17T01:29:16.151Z,8.109
2023-01-17T01:30:16.831Z,8.177
2023-01-17T01:31:16.327Z,8.182
2023-01-17T01:32:16.109Z,8.149
2023-01-17T01:33:16.677Z,8.060
2023-01-17T01:34:16.134Z,8.079
2023-01-17T01:35:39.122Z,8.137
2023-01-17T01:36:15.972Z,8.095
2023-01-17T01:37:16.594Z,7.985
2023-01-17T01:38:16.342Z,7.905
2023-01-17T01:39:16.274Z,7.980
2023-01-17T01:40:16.139Z,8.029
2023-01-17T01:41:16.267Z,8.050
2023-01-17T01:42:16.329Z,8.069
2023-01-17T01:43:16.175Z,8.131
2023-01-17T01:44:16.705Z,8.178
2023-01-17T01:45:16.817Z,8.166
2023-01-17T01:46:16.693Z,8.090
2023-01-17T01:47:16.420Z,7.980
2023-01-17T01:48:16.431Z,8.116
2023-01-17T01:49:16.532Z,8.178
2023-01-17T01:50:16.690Z,8.189
2023-01-17T01:51:16.787Z,8.154
2023-01-17T01:52:16.593Z,8.166
2023-01-17T01:53:16.389Z,8.144
2023-01-17T01:54:16.349Z,8.095
2023-01-17T01:55:16.521Z,8.069
2023-01-17T01:56:16.447Z,8.079
2023-01-17T01:57:16.294Z,8.137
2023-01-17T01:58:16.726Z,8.220
2023-01-17T01:59:16.464Z,8.295
2023-01-17T02:00:17.159Z,8.239
2023-01-17T02:01:16.674Z,8.225
2023-01-17T02:02:16.811Z,8.284
2023-01-17T02:03:16.681Z,8.270
2023-01-17T02:04:16.748Z,8.255
2023-01-17T02:05:16.927Z,8.196
2023-01-17T02:06:16.793Z,8.192
2023-01-17T02:07:16.487Z,8.142
2023-01-17T02:08:16.284Z,8.100
2023-01-17T02:09:16.412Z,8.039
2023-01-17T02:10:16.583Z,8.060
2023-01-17T02:11:16.628Z,8.126
2023-01-17T02:12:16.420Z,8.085
2023-01-17T02:13:16.350Z,8.034
2023-01-17T02:14:16.241Z,8.060
2023-01-17T02:15:16.630Z,8.039
2023-01-17T02:16:16.574Z,8.010
2023-01-17T02:17:16.363Z,8.100
2023-01-17T02:18:16.462Z,8.120
2023-01-17T02:19:16.727Z,8.100
2023-01-17T02:20:16.710Z,8.126
2023-01-17T02:21:16.940Z,8.121
2023-01-17T02:22:16.433Z,8.138
2023-01-17T02:23:16.347Z,8.159
2023-01-17T02:24:16.279Z,8.159
2023-01-17T02:25:16.577Z,8.192
2023-01-17T02:26:16.431Z,8.156
2023-01-17T02:27:16.705Z,8.104
2023-01-17T02:28:16.671Z,8.189
2023-01-17T02:29:16.742Z,8.100
2023-01-17T02:30:16.642Z,8.104
2023-01-17T02:31:17.453Z,8.095
2023-01-17T02:32:16.998Z,8.171
2023-01-17T02:33:16.722Z,8.178
2023-01-17T02:34:16.527Z,8.166
2023-01-17T02:35:16.290Z,8.149
2023-01-17T02:36:16.332Z,8.085
2023-01-17T02:37:16.509Z,8.109
2023-01-17T02:38:16.484Z,8.074
2023-01-17T02:39:16.450Z,8.020
2023-01-17T02:40:16.418Z,8.039
2023-01-17T02:41:16.645Z,8
2023-01-17T02:42:16.588Z,7.980
2023-01-17T02:43:16.739Z,7.903
2023-01-17T02:44:16.837Z,7.954
2023-01-17T02:45:16.620Z,7.980
2023-01-17T02:46:16.889Z,7.965
2023-01-17T02:47:16.817Z,7.985
2023-01-17T02:48:16.566Z,7.949
2023-01-17T02:49:16.673Z,7.883
2023-01-17T02:50:17.000Z,7.965
2023-01-17T02:51:16.967Z,8.015
2023-01-17T02:52:16.623Z,8.074
2023-01-17T02:53:16.570Z,8.045
2023-01-17T02:54:16.661Z,8.045
2023-01-17T02:55:16.957Z,8.029
2023-01-17T02:56:16.488Z,8.005
2023-01-17T02:57:16.385Z,7.994
2023-01-17T02:58:16.453Z,7.974
2023-01-17T02:59:16.351Z,7.974
2023-01-17T03:00:17.190Z,7.994
2023-01-17T03:01:16.708Z,7.989
2023-01-17T03:02:16.698Z,8.010
2023-01-17T03:03:16.630Z,8.010
2023-01-17T03:04:16.261Z,8.020
2023-01-17T03:05:16.465Z,8.034
2023-01-17T03:06:16.042Z,8.039
2023-01-17T03:07:16.908Z,8.074
2023-01-17T03:08:16.709Z,8.085
2023-01-17T03:09:16.696Z,8.116
2023-01-17T03:10:16.404Z,8.095
2023-01-17T03:11:16.899Z,8.095
2023-01-17T03:12:16.687Z,8.064
2023-01-17T03:13:16.504Z,8.069
2023-01-17T03:14:16.186Z,8.069
2023-01-17T03:15:16.492Z,8.064
2023-01-17T03:16:16.415Z,8.069
2023-01-17T03:17:16.705Z,8.114
2023-01-17T03:18:16.535Z,8.116
2023-01-17T03:19:16.550Z,8.029
2023-01-17T03:20:16.672Z,8.034
2023-01-17T03:21:16.742Z,8.100
2023-01-17T03:22:16.837Z,7.974
2023-01-17T03:23:16.986Z,8.024
2023-01-17T03:24:16.611Z,8.069
2023-01-17T03:25:16.897Z,8.045
2023-01-17T03:26:16.803Z,8.039
2023-01-17T03:27:16.663Z,8.015
2023-01-17T03:28:16.577Z,7.960
2023-01-17T03:29:16.607Z,7.874
2023-01-17T03:30:16.818Z,7.894
2023-01-17T03:31:16.415Z,7.949
2023-01-17T03:32:16.465Z,7.945
2023-01-17T03:33:16.611Z,7.934
2023-01-17T03:34:16.682Z,7.823
2023-01-17T03:35:17.027Z,7.849
2023-01-17T03:36:16.349Z,7.912
2023-01-17T03:37:16.361Z,7.945
2023-01-17T03:38:16.397Z,7.934
2023-01-17T03:39:16.766Z,7.950
2023-01-17T03:40:16.843Z,7.994
2023-01-17T03:41:16.743Z,7.986
2023-01-17T03:42:16.704Z,8.038
2023-01-17T03:43:16.988Z,8.029
2023-01-17T03:44:16.841Z,8.064
2023-01-17T03:45:17.085Z,8.045
2023-01-17T03:46:16.801Z,8.010
2023-01-17T03:47:16.624Z,8.020
2023-01-17T03:48:16.610Z,8.039
2023-01-17T03:49:16.830Z,8.045
2023-01-17T03:50:16.795Z,8.055
2023-01-17T03:51:16.935Z,8.024
2023-01-17T03:52:16.938Z,8.015
2023-01-17T03:53:17.080Z,8.045
2023-01-17T03:54:16.832Z,8.034
2023-01-17T03:55:17.066Z,8.015
2023-01-17T03:56:16.669Z,7.969
2023-01-17T03:57:16.685Z,7.969
2023-01-17T03:58:16.627Z,8.010
2023-01-17T03:59:16.868Z,7.894
2023-01-17T04:00:17.744Z,7.903
2023-01-17T04:01:17.131Z,7.870
2023-01-17T04:02:16.677Z,7.960
2023-01-17T04:03:16.706Z,7.900
2023-01-17T04:04:16.869Z,7.925
2023-01-17T04:05:17.068Z,7.867
2023-01-17T04:06:16.543Z,7.920
2023-01-17T04:07:16.688Z,7.850
2023-01-17T04:08:17.106Z,7.802
2023-01-17T04:09:16.767Z,7.965
2023-01-17T04:10:16.820Z,7.980
2023-01-17T04:11:17.138Z,8.039
2023-01-17T04:12:17.150Z,8.100
2023-01-17T04:13:17.057Z,8.126
2023-01-17T04:14:16.992Z,8.125
2023-01-17T04:15:17.319Z,8.131
2023-01-17T04:16:17.063Z,8.116
2023-01-17T04:17:16.903Z,8.024
2023-01-17T04:18:17.056Z,8.029
2023-01-17T04:19:17.071Z,8.074
2023-01-17T04:20:17.073Z,8.114
2023-01-17T04:21:16.950Z,8.079
2023-01-17T04:22:17.140Z,8.060
2023-01-17T04:23:17.176Z,8.100
2023-01-17T04:24:18.014Z,8.119
2023-01-17T04:25:16.536Z,8.114
2023-01-17T04:26:16.689Z,8.137
2023-01-17T04:27:16.489Z,8.123
2023-01-17T04:28:16.695Z,8.060
2023-01-17T04:29:16.732Z,8.079
2023-01-17T04:30:17.249Z,8.121
2023-01-17T04:31:16.570Z,8.120
2023-01-17T04:32:16.758Z,8.142
2023-01-17T04:33:16.870Z,8.131
2023-01-17T04:34:17.255Z,8.104
2023-01-17T04:35:16.883Z,8.085
2023-01-17T04:36:17.102Z,8.114
2023-01-17T04:37:16.839Z,8.114
2023-01-17T04:38:16.693Z,8.137
2023-01-17T04:39:16.575Z,8.079
2023-01-17T04:40:16.673Z,8.060
2023-01-17T04:41:17.011Z,8.074
2023-01-17T04:42:16.847Z,8.034
2023-01-17T04:43:16.917Z,7.914
2023-01-17T04:44:16.760Z,7.929
2023-01-17T04:45:16.862Z,7.923
2023-01-17T04:46:17.145Z,7.849
2023-01-17T04:47:16.713Z,7.861
2023-01-17T04:48:16.698Z,7.784
2023-01-17T04:49:16.705Z,7.867
2023-01-17T04:50:16.660Z,7.900
2023-01-17T04:51:16.660Z,7.885
2023-01-17T04:52:16.991Z,7.829
2023-01-17T04:53:16.364Z,7.810
2023-01-17T04:54:16.559Z,7.888
2023-01-17T04:55:16.935Z,7.877
2023-01-17T04:56:16.745Z,7.902
2023-01-17T04:57:16.906Z,7.925
2023-01-17T04:58:16.815Z,7.961
2023-01-17T04:59:16.939Z,7.934
2023-01-17T05:00:17.523Z,7.950
2023-01-17T05:01:17.088Z,7.929
2023-01-17T05:02:16.911Z,7.929
2023-01-17T05:03:16.975Z,7.894
2023-01-17T05:04:16.968Z,7.925
2023-01-17T05:05:16.535Z,7.934
2023-01-17T05:06:16.632Z,7.900
2023-01-17T05:07:16.571Z,7.894
2023-01-17T05:08:16.571Z,7.929
2023-01-17T05:09:16.895Z,7.945
2023-01-17T05:10:17.182Z,7.925
2023-01-17T05:11:16.567Z,7.909
2023-01-17T05:12:16.475Z,7.874
2023-01-17T05:13:16.940Z,7.873
2023-01-17T05:14:16.937Z,7.844
2023-01-17T05:15:17.419Z,7.861
2023-01-17T05:16:16.385Z,7.879
2023-01-17T05:17:16.629Z,7.849
2023-01-17T05:18:16.952Z,7.844
2023-01-17T05:19:17.108Z,7.833
2023-01-17T05:20:16.587Z,7.844
2023-01-17T05:21:16.857Z,7.795
2023-01-17T05:22:16.734Z,7.795
2023-01-17T05:23:16.649Z,7.790
2023-01-17T05:24:16.634Z,7.690
2023-01-17T05:25:16.840Z,7.724
2023-01-17T05:26:16.973Z,7.755
2023-01-17T05:27:16.752Z,7.703
2023-01-17T05:28:16.854Z,7.719
2023-01-17T05:29:17.008Z,7.730
2023-01-17T05:30:17.022Z,7.690
2023-01-17T05:31:16.797Z,7.699
2023-01-17T05:32:17.289Z,7.704
2023-01-17T05:33:17.417Z,7.678
2023-01-17T05:34:16.676Z,7.699
2023-01-17T05:35:16.890Z,7.684
2023-01-17T05:36:17.191Z,7.693
2023-01-17T05:37:16.179Z,7.671
2023-01-17T05:38:16.580Z,7.671
2023-01-17T05:39:17.000Z,7.665
2023-01-17T05:40:17.230Z,7.655
2023-01-17T05:41:16.672Z,7.649
2023-01-17T05:42:16.853Z,7.643
2023-01-17T05:43:17.073Z,7.625
2023-01-17T05:44:17.052Z,7.637
2023-01-17T05:45:17.379Z,7.585
2023-01-17T05:46:16.929Z,7.574
2023-01-17T05:47:17.092Z,7.570
2023-01-17T05:48:16.700Z,7.590
2023-01-17T05:49:17.014Z,7.610
2023-01-17T05:50:16.724Z,7.594
2023-01-17T05:51:17.061Z,7.579
2023-01-17T05:52:16.491Z,7.565
2023-01-17T05:53:16.949Z,7.559
2023-01-17T05:54:17.144Z,7.539
2023-01-17T05:55:16.703Z,7.519
2023-01-17T05:56:17.025Z,7.474
2023-01-17T05:57:30.851Z,7.460
2023-01-17T05:58:17.355Z,7.474
2023-01-17T05:59:20.572Z,7.460
2023-01-17T06:00:17.570Z,7.469
2023-01-17T06:01:17.285Z,7.449
2023-01-17T06:02:16.687Z,7.434
2023-01-17T06:03:16.981Z,7.409
2023-01-17T06:04:16.590Z,7.434
2023-01-17T06:05:17.583Z,7.429
2023-01-17T06:06:16.923Z,7.414
2023-01-17T06:07:17.094Z,7.405
2023-01-17T06:08:17.131Z,7.414
2023-01-17T06:09:16.917Z,7.396
2023-01-17T06:10:17.145Z,7.421
2023-01-17T06:11:16.782Z,7.405
2023-01-17T06:12:17.279Z,7.396
2023-01-17T06:13:16.999Z,7.407
2023-01-17T06:14:16.217Z,7.385
2023-01-17T06:15:17.173Z,7.380
2023-01-17T06:16:16.631Z,7.379
2023-01-17T06:17:17.192Z,7.362
2023-01-17T06:18:16.745Z,7.335
2023-01-17T06:19:17.110Z,7.327
2023-01-17T06:20:17.104Z,7.310
2023-01-17T06:21:16.625Z,7.298
2023-01-17T06:22:16.890Z,7.289
2023-01-17T06:23:16.702Z,7.260
2023-01-17T06:24:16.881Z,7.284
2023-01-17T06:25:16.892Z,7.269
2023-01-17T06:26:16.970Z,7.260
2023-01-17T06:27:16.833Z,7.25
2023-01-17T06:28:17.010Z,7.230
2023-01-17T06:29:16.537Z,7.25
2023-01-17T06:30:17.125Z,7.25
2023-01-17T06:31:16.794Z,7.235
2023-01-17T06:32:16.915Z,7.224
2023-01-17T06:34:16.932Z,7.195
2023-01-17T06:35:16.796Z,7.210
2023-01-17T06:36:16.938Z,7.183
2023-01-17T06:37:16.855Z,7.204
2023-01-17T06:38:16.626Z,7.189
2023-01-17T06:39:17.267Z,7.178
2023-01-17T06:40:16.716Z,7.184
2023-01-17T06:41:16.893Z,7.186
2023-01-17T06:42:16.983Z,7.177
2023-01-17T06:43:16.318Z,7.165
2023-01-17T06:44:16.727Z,7.184
2023-01-17T06:45:17.203Z,7.190
2023-01-17T06:46:16.931Z,7.184
2023-01-17T06:47:16.736Z,7.230
2023-01-17T06:48:16.899Z,7.219
2023-01-17T06:49:16.841Z,7.230
2023-01-17T06:50:17.263Z,7.235
2023-01-17T06:51:16.759Z,7.25
2023-01-17T06:52:16.733Z,7.255
2023-01-17T06:53:17.135Z,7.244
2023-01-17T06:54:16.875Z,7.269
2023-01-17T06:55:17.517Z,7.260
2023-01-17T06:56:17.117Z,7.269
2023-01-17T06:57:17.457Z,7.264
2023-01-17T06:58:16.938Z,7.275
2023-01-17T06:59:16.984Z,7.260
2023-01-17T07:00:18.127Z,7.204
2023-01-17T07:01:16.954Z,7.230
2023-01-17T07:02:16.584Z,7.224
2023-01-17T07:03:16.953Z,7.210
2023-01-17T07:04:16.929Z,7.210
2023-01-17T07:05:16.951Z,7.230
2023-01-17T07:06:16.584Z,7.235
2023-01-17T07:07:16.770Z,7.25
2023-01-17T07:08:17.201Z,7.239
2023-01-17T07:09:17.200Z,7.235
2023-01-17T07:10:16.875Z,7.25
2023-01-17T07:11:16.699Z,7.210
2023-01-17T07:12:17.043Z,7.219
2023-01-17T07:13:16.771Z,7.235
2023-01-17T07:14:16.967Z,7.255
2023-01-17T07:15:17.017Z,7.235
2023-01-17T07:16:17.093Z,7.239
2023-01-17T07:17:16.947Z,7.235
2023-01-17T07:18:16.760Z,7.25
2023-01-17T07:19:16.830Z,7.235
2023-01-17T07:20:17.126Z,7.255
2023-01-17T07:21:17.042Z,7.280
2023-01-17T07:22:16.890Z,7.275
2023-01-17T07:23:16.922Z,7.280
2023-01-17T07:24:16.791Z,7.300
2023-01-17T07:25:17.202Z,7.300
2023-01-17T07:26:16.591Z,7.275
2023-01-17T07:27:17.113Z,7.295
2023-01-17T07:28:16.784Z,7.295
2023-01-17T07:29:16.855Z,7.284
2023-01-17T07:30:16.818Z,7.275
2023-01-17T07:31:16.793Z,7.289
2023-01-17T07:32:17.175Z,7.238
2023-01-17T07:33:16.967Z,7.25
2023-01-17T07:34:17.130Z,7.239
2023-01-17T07:35:16.813Z,7.238
2023-01-17T07:36:17.231Z,7.244
2023-01-17T07:37:16.908Z,7.259
2023-01-17T07:38:16.609Z,7.244
2023-01-17T07:39:17.136Z,7.235
2023-01-17T07:40:17.205Z,7.136
2023-01-17T07:41:16.932Z,7.176
2023-01-17T07:42:17.036Z,7.184
2023-01-17T07:43:16.837Z,7.165
2023-01-17T07:44:17.219Z,7.165
2023-01-17T07:45:17.115Z,7.183
2023-01-17T07:46:17.072Z,7.189
2023-01-17T07:47:16.947Z,7.182
2023-01-17T07:48:17.022Z,7.199
2023-01-17T07:49:17.307Z,7.215
2023-01-17T07:50:17.349Z,7.210
2023-01-17T07:51:17.215Z,7.230
2023-01-17T07:52:18.298Z,7.275
2023-01-17T07:53:17.365Z,7.239
2023-01-17T07:54:17.241Z,7.264
2023-01-17T07:55:17.131Z,7.275
2023-01-17T07:56:16.912Z,7.284
2023-01-17T07:57:17.128Z,7.264
2023-01-17T07:58:17.260Z,7.284
2023-01-17T07:59:17.109Z,7.304
2023-01-17T08:00:17.753Z,7.315
2023-01-17T08:01:17.671Z,7.327
2023-01-17T08:02:21.949Z,7.389
2023-01-17T08:03:17.381Z,7.394
2023-01-17T08:04:17.836Z,7.405
2023-01-17T08:05:17.082Z,7.414
2023-01-17T08:06:17.180Z,7.400
2023-01-17T08:07:17.217Z,7.400
2023-01-17T08:08:17.831Z,7.405
2023-01-17T08:09:17.071Z,7.409
2023-01-17T08:10:17.550Z,7.405
2023-01-17T08:11:17.128Z,7.368
2023-01-17T08:12:16.845Z,7.393
2023-01-17T08:13:16.878Z,7.425
2023-01-17T08:14:17.424Z,7.429
2023-01-17T08:15:16.844Z,7.429
2023-01-17T08:16:16.667Z,7.425
2023-01-17T08:17:16.729Z,7.434
2023-01-17T08:18:17.147Z,7.454
2023-01-17T08:19:16.694Z,7.460
2023-01-17T08:20:17.134Z,7.474
2023-01-17T08:21:16.583Z,7.460
2023-01-17T08:22:17.374Z,7.469
2023-01-17T08:23:16.909Z,7.485
2023-01-17T08:24:16.802Z,7.505
2023-01-17T08:25:17.318Z,7.505
2023-01-17T08:26:16.878Z,7.519
2023-01-17T08:27:17.195Z,7.530
2023-01-17T08:28:16.855Z,7.530
2023-01-17T08:29:16.687Z,7.554
2023-01-17T08:30:17.228Z,7.559
2023-01-17T08:31:17.376Z,7.550
2023-01-17T08:32:17.036Z,7.554
2023-01-17T08:33:16.794Z,7.539
2023-01-17T08:34:17.363Z,7.554
2023-01-17T08:35:17.266Z,7.570
2023-01-17T08:36:16.985Z,7.570
2023-01-17T08:37:16.784Z,7.590
2023-01-17T08:38:16.707Z,7.614
2023-01-17T08:39:17.035Z,7.649
2023-01-17T08:40:17.037Z,7.689
2023-01-17T08:41:16.826Z,7.735
2023-01-17T08:42:17.144Z,7.780
2023-01-17T08:43:16.673Z,7.834
2023-01-17T08:44:17.114Z,7.929
2023-01-17T08:45:17.003Z,8.010
2023-01-17T08:46:17.365Z,8.065
2023-01-17T08:47:17.002Z,8.114
2023-01-17T08:48:17.183Z,8.164
2023-01-17T08:49:17.091Z,8.215
2023-01-17T08:50:16.802Z,8.260
2023-01-17T08:51:17.097Z,8.310
2023-01-17T08:52:16.902Z,8.345
2023-01-17T08:53:16.896Z,8.390
2023-01-17T08:54:16.743Z,8.430
2023-01-17T08:55:16.790Z,8.439
2023-01-17T08:56:16.932Z,8.478
2023-01-17T08:57:16.821Z,8.505
2023-01-17T08:58:17.213Z,8.505
2023-01-17T08:59:17.529Z,8.555
2023-01-17T09:00:17.585Z,8.560
2023-01-17T09:01:16.726Z,8.585
2023-01-17T09:02:16.899Z,8.657
2023-01-17T09:03:16.959Z,8.704
2023-01-17T09:04:16.723Z,8.774
2023-01-17T09:05:17.380Z,8.840
2023-01-17T09:06:16.855Z,8.909
2023-01-17T09:07:17.034Z,8.970
2023-01-17T09:08:17.173Z,9.020
2023-01-17T09:09:17.074Z,9.064
2023-01-17T09:10:17.107Z,9.074
2023-01-17T09:11:16.826Z,9.050
2023-01-17T09:12:17.268Z,9.079
2023-01-17T09:13:16.737Z,9.126
2023-01-17T09:14:17.065Z,9.204
2023-01-17T09:15:16.968Z,9.255
2023-01-17T09:16:16.817Z,9.289
2023-01-17T09:17:16.638Z,9.350
2023-01-17T09:18:17.151Z,9.425
2023-01-17T09:19:16.759Z,9.454
2023-01-17T09:20:17.287Z,9.494
2023-01-17T09:21:16.878Z,9.489
2023-01-17T09:22:17.064Z,9.524
2023-01-17T09:23:16.817Z,9.590
2023-01-17T09:24:17.204Z,9.644
2023-01-17T09:25:16.830Z,9.694
2023-01-17T09:26:16.619Z,9.720
2023-01-17T09:27:17.265Z,9.781
2023-01-17T09:28:17.035Z,9.810
2023-01-17T09:29:16.860Z,9.821
2023-01-17T09:30:17.320Z,9.868
2023-01-17T09:31:17.887Z,9.899
2023-01-17T09:32:17.391Z,9.895
2023-01-17T09:33:17.717Z,9.930
2023-01-17T09:34:17.636Z,9.984
2023-01-17T09:35:17.092Z,10.03
2023-01-17T09:36:17.718Z,10.06
2023-01-17T09:37:17.469Z,10.09
2023-01-17T09:38:17.584Z,10.13
2023-01-17T09:39:17.575Z,10.17
2023-01-17T09:40:18.158Z,10.20
2023-01-17T09:41:16.968Z,10.26
2023-01-17T09:42:17.135Z,10.28
2023-01-17T09:43:17.290Z,10.33
2023-01-17T09:44:16.759Z,10.34
2023-01-17T09:45:17.437Z,10.37
2023-01-17T09:46:17.027Z,10.41
2023-01-17T09:47:17.165Z,10.43
2023-01-17T09:48:16.626Z,10.41
2023-01-17T09:49:17.193Z,10.44
2023-01-17T09:50:16.921Z,10.49
2023-01-17T09:51:17.183Z,10.53
2023-01-17T09:52:16.918Z,10.55
2023-01-17T09:53:16.917Z,10.53
2023-01-17T09:54:17.300Z,10.37
2023-01-17T09:55:17.065Z,10.31
2023-01-17T09:56:17.117Z,10.33
2023-01-17T09:57:16.919Z,10.39
2023-01-17T09:58:16.828Z,10.48
2023-01-17T09:59:19.057Z,10.52
2023-01-17T10:00:17.954Z,10.61
2023-01-17T10:01:17.087Z,10.68
2023-01-17T10:02:17.487Z,10.72
2023-01-17T10:03:17.034Z,10.64
2023-01-17T10:04:17.149Z,10.72
2023-01-17T10:05:17.152Z,10.71
2023-01-17T10:06:16.977Z,10.78
2023-01-17T10:07:16.904Z,10.87
2023-01-17T10:08:17.041Z,10.90
2023-01-17T10:09:16.856Z,10.91
2023-01-17T10:10:17.376Z,10.90
2023-01-17T10:11:17.165Z,10.83
2023-01-17T10:12:17.039Z,10.89
2023-01-17T10:13:16.894Z,10.96
2023-01-17T10:14:16.168Z,10.94
2023-01-17T10:15:17.263Z,10.95
2023-01-17T10:16:17.011Z,11.01
2023-01-17T10:17:16.712Z,11.07
2023-01-17T10:18:29.277Z,11.10
2023-01-17T10:19:16.937Z,11.13
2023-01-17T10:20:17.500Z,11.21
2023-01-17T10:21:17.240Z,11.22
2023-01-17T10:22:17.085Z,11.19
2023-01-17T10:23:17.137Z,11.22
2023-01-17T10:24:17.389Z,11.29
2023-01-17T10:25:17.668Z,11.30
2023-01-17T10:26:17.412Z,11.35
2023-01-17T10:27:17.670Z,11.38
2023-01-17T10:28:17.704Z,11.41
2023-01-17T10:29:19.486Z,11.40
2023-01-17T10:30:17.186Z,11.42
2023-01-17T10:31:16.843Z,11.43
2023-01-17T10:32:17.123Z,11.47
2023-01-17T10:33:16.927Z,11.49
2023-01-17T10:34:16.602Z,11.52
2023-01-17T10:35:17.172Z,11.48
2023-01-17T10:36:16.946Z,11.53
2023-01-17T10:37:16.926Z,11.55
2023-01-17T10:38:16.916Z,11.57
2023-01-17T10:39:17.308Z,11.59
2023-01-17T10:40:16.941Z,11.63
2023-01-17T10:41:17.425Z,11.68
2023-01-17T10:42:17.523Z,11.72
2023-01-17T10:43:18.229Z,11.72
2023-01-17T10:44:17.642Z,11.71
2023-01-17T10:45:16.990Z,11.72
2023-01-17T10:46:17.470Z,11.76
2023-01-17T10:47:17.343Z,11.76
2023-01-17T10:48:17.136Z,11.76
2023-01-17T10:49:16.861Z,11.76
2023-01-17T10:50:17.428Z,11.74
2023-01-17T10:51:17.545Z,11.73
2023-01-17T10:52:17.295Z,11.73
2023-01-17T10:53:17.743Z,11.75
2023-01-17T10:54:17.513Z,11.75
2023-01-17T10:55:17.569Z,11.77
2023-01-17T10:56:17.615Z,11.81
2023-01-17T10:57:17.153Z,11.87
2023-01-17T10:58:16.808Z,11.86
2023-01-17T10:59:17.265Z,11.84
2023-01-17T11:00:17.846Z,11.87
2023-01-17T11:01:17.954Z,11.88
2023-01-17T11:02:17.336Z,11.89
2023-01-17T11:03:17.207Z,11.92
2023-01-17T11:04:17.026Z,11.92
2023-01-17T11:05:17.184Z,11.92
2023-01-17T11:06:16.896Z,11.90
2023-01-17T11:07:17.057Z,11.98
2023-01-17T11:08:17.154Z,12.34
2023-01-17T11:09:17.512Z,12.18
2023-01-17T11:10:17.226Z,11.95
2023-01-17T11:11:17.311Z,11.87
2023-01-17T11:12:16.682Z,11.77
2023-01-17T11:13:17.436Z,11.75
2023-01-17T11:14:17.255Z,11.72
2023-01-17T11:15:17.341Z,11.71
2023-01-17T11:16:17.222Z,11.75
2023-01-17T11:17:17.537Z,11.75
2023-01-17T11:18:17.390Z,11.80
2023-01-17T11:19:17.693Z,11.82
2023-01-17T11:20:17.432Z,11.82
2023-01-17T11:21:17.776Z,11.83
2023-01-17T11:22:17.577Z,11.89
2023-01-17T11:23:17.439Z,11.89
2023-01-17T11:24:17.252Z,11.89
2023-01-17T11:25:17.174Z,11.88
2023-01-17T11:26:17.048Z,11.81
2023-01-17T11:27:17.276Z,11.83
2023-01-17T11:28:17.124Z,11.85
2023-01-17T11:29:17.007Z,11.81
2023-01-17T11:30:17.060Z,11.85
2023-01-17T11:31:17.169Z,11.88
2023-01-17T11:32:17.178Z,11.88
2023-01-17T11:33:17.351Z,11.88
2023-01-17T11:34:17.288Z,11.88
2023-01-17T11:35:17.340Z,11.87
2023-01-17T11:36:17.040Z,11.88
2023-01-17T11:37:17.000Z,11.89
2023-01-17T11:38:16.775Z,11.90
2023-01-17T11:39:17.730Z,11.93
2023-01-17T11:40:17.193Z,11.97
2023-01-17T11:41:17.012Z,11.97
2023-01-17T11:42:16.961Z,12.01
2023-01-17T11:43:16.651Z,12.02
2023-01-17T11:44:17.284Z,12.03
2023-01-17T11:45:17.533Z,12.07
2023-01-17T11:46:16.754Z,12.10
2023-01-17T11:47:16.703Z,12.14
2023-01-17T11:48:17.145Z,12.20
2023-01-17T11:49:17.011Z,12.22
2023-01-17T11:50:17.235Z,12.27
2023-01-17T11:51:17.476Z,12.31
2023-01-17T11:52:16.965Z,12.29
2023-01-17T11:53:16.922Z,12.33
2023-01-17T11:54:17.252Z,12.36
2023-01-17T11:55:17.294Z,12.36
2023-01-17T11:56:17.124Z,12.40
2023-01-17T11:57:16.975Z,12.35
2023-01-17T11:58:17.215Z,12.32
2023-01-17T11:59:17.243Z,12.28
2023-01-17T12:00:17.696Z,12.27
2023-01-17T12:01:17.330Z,12.28
2023-01-17T12:02:17.262Z,12.25
2023-01-17T12:03:16.889Z,12.26
2023-01-17T12:04:16.985Z,12.21
2023-01-17T12:05:17.307Z,12.23
2023-01-17T12:06:17.106Z,12.19
2023-01-17T12:07:16.692Z,12.18
2023-01-17T12:08:17.894Z,12.22
2023-01-17T12:09:17.117Z,12.25
2023-01-17T12:10:17.244Z,12.25
2023-01-17T12:11:17.247Z,12.20
2023-01-17T12:12:17.096Z,12.15
2023-01-17T12:13:17.098Z,12.12
2023-01-17T12:14:17.274Z,12.10
2023-01-17T12:15:17.244Z,12.12
2023-01-17T12:16:17.255Z,12.09
2023-01-17T12:17:17.335Z,12.05
2023-01-17T12:18:17.248Z,12.09
2023-01-17T12:19:17.047Z,12.10
2023-01-17T12:20:17.024Z,12.11
2023-01-17T12:21:17.107Z,12.14
2023-01-17T12:22:17.166Z,12.16
2023-01-17T12:23:16.959Z,12.17
2023-01-17T12:24:17.114Z,12.23
2023-01-17T12:25:17.299Z,12.30
2023-01-17T12:26:17.263Z,12.31
2023-01-17T12:27:17.408Z,12.32
2023-01-17T12:28:17.350Z,12.32
2023-01-17T12:29:17.254Z,12.30
2023-01-17T12:30:17.469Z,12.31
2023-01-17T12:31:16.914Z,12.29
2023-01-17T12:32:16.889Z,12.27
2023-01-17T12:33:16.914Z,12.31
2023-01-17T12:34:17.389Z,12.33
2023-01-17T12:35:17.566Z,12.32
2023-01-17T12:36:17.569Z,12.35
2023-01-17T12:37:17.483Z,12.39
2023-01-17T12:38:31.306Z,12.42
2023-01-17T12:39:17.509Z,12.38
2023-01-17T12:40:17.406Z,12.30
2023-01-17T12:41:17.630Z,12.26
2023-01-17T12:42:16.217Z,12.23
2023-01-17T12:43:16.812Z,12.21
2023-01-17T12:44:16.934Z,12.40
2023-01-17T12:45:17.331Z,12.32
2023-01-17T12:46:17.279Z,12.21
2023-01-17T12:47:17.273Z,12.16
2023-01-17T12:48:17.405Z,12.13
2023-01-17T12:49:17.408Z,12.07
2023-01-17T12:50:17.331Z,12.09
2023-01-17T12:51:17.135Z,12.03
2023-01-17T12:52:17.477Z,11.96
2023-01-17T12:53:17.316Z,11.93
2023-01-17T12:54:17.181Z,11.93
2023-01-17T12:55:17.312Z,11.92